Nearby METAR Reports

 

CYYY - Mont Joli Airpor, Quebec, Canada
Distance from station: NE 44km
Mise à jour: Wed, 14-Nov-2018 9:00pm EST
nuageux
nuageux
 Wind from ONO
Vent: ONO 48 km/h, Rafale: 67 km/h
Température: -7°C
Facteur vent: -18°C
Point de rosée: -14°C
Humidité: 58%
Baromètre: 1022.7 hPa
Clouds: nuageux
Visibility: 48 km
Cloud details: nuageux 1006 m
2018/11/15 02:00 CYYY 150200Z 29026G36KT 30SM BKN033 M07/M14 A3020 RMK SC6 SLP233
CWZS - Amqui, Quebec, Canada
Distance from station: E 94km
Mise à jour: Wed, 14-Nov-2018 9:00pm EST

 Wind from ONO
Vent: ONO 30 km/h, Rafale: 46 km/h
Température: -8°C
Facteur vent: -17°C
Point de rosée: -12°C
Humidité: 73%
2018/11/15 02:00 CWZS 150200Z AUTO 30016G25KT M08/M12 RMK AO1 PK WND 30032/0114 SLP200 T10751120 51041
 
CWQO - Ile Bicquette, Quebec, Canada
Distance from station: ONO 15km
Mise à jour: Wed, 14-Nov-2018 9:00pm EST

 Wind from ONO
Vent: ONO 43 km/h, Rafale: 52 km/h
Température: -6°C
Facteur vent: -16°C
Point de rosée: -12°C
Humidité: 63%
2018/11/15 02:00 CWQO 150200Z AUTO 29023G28KT M06/M12 RMK AO1 PK WND 30036/0105 T10641115
CWNH - Riviere Du Loup, Quebec, Canada
Distance from station: SO 90km
Mise à jour: Wed, 14-Nov-2018 9:00pm EST

 Wind from NO
Vent: NO 15 km/h, Rafale: 31 km/h
Température: -9°C
Facteur vent: -15°C
Point de rosée: -15°C
Humidité: 62%
2018/11/15 02:00 CWNH 150200Z AUTO 31008G17KT M09/M15 RMK AO1 SOG 05 1038 PK WND 33019/0128 T10911153
 
CWAF - Ile Rouge(Maps), Quebec, Canada
Distance from station: OSO 70km
Mise à jour: Wed, 14-Nov-2018 9:00pm EST

 Wind from ONO
Vent: ONO 63 km/h, Rafale: 80 km/h
Température: -7°C
Facteur vent: -19°C
Point de rosée: -12°C
Humidité: 68%
2018/11/15 02:00 CWAF 150200Z AUTO 29034G43KT M07/M12 RMK AO1 PK WND 29049/0111 T10691115
CYBC - Baie Comeau Airp, Quebec, Canada
Distance from station: NNE 90km
Mise à jour: Wed, 14-Nov-2018 9:00pm EST
clair
clair
 Wind from ONO
Vent: ONO 17 km/h, Rafale: 37 km/h
Température: -7°C
Facteur vent: -13°C
Point de rosée: -14°C
Humidité: 58%
Baromètre: 1020.7 hPa
Clouds: clair
Visibility: 14 km
2018/11/15 02:00 CYBC 150200Z AUTO 29009G20KT 9SM CLR M07/M14 A3014 RMK SLP211